Proctor, Montana
Current Conditions -  °F | °C
As of 1:55 PM on Tuesday 21 Oct 2014 (Local Time) from KGPI Reporting Station
Overcast Overcast  
Wind Chill: 50°   Ceiling: 5000
Heat Index: 50°   Visibility: 10mi
Dew Point: 46°   Wind: 10mph
Humidity: 86%   Direction: 160°SSE
Pressure: 29.83"   Gusts: NA
Location:  47.92°N, 114.37°W
Report Text: KGPI 211955Z 16009KT 10SM OVC050 10/08 A2983 RMK AO2 SLP112 T01000078
Loading
Personal Weather Stations






























Interactive Weather Map
Tropical Storm Tracking
New forecast layout! Learn more

10-Day Weather Forecast

Advertisements
Track Severe Weather on mobile